Time;durP1;ratioP1;P1;durP2;ratioP2;P2;SDS_P1;SDS_P2;PMS_P1;PMS_P2;Temp;Humidity;BMP_temperature;BMP_pressure;BME280_temperature;BME280_humidity;BME280_pressure;Samples;Min_cycle;Max_cycle;Signal;HPM_P1;HPM_P2
2022/05/02 00:01:29;;;;;;;8.90;6.60;;;;;;;;;;4964705;28;20699;-51
2022/05/02 00:03:55;;;;;;;8.43;6.63;;;;;;;;;;4968485;28;20660;-51
2022/05/02 00:06:20;;;;;;;10.17;7.50;;;;;;;;;;4959713;28;20206;-51
2022/05/02 00:08:46;;;;;;;10.13;7.77;;;;;;;;;;4964345;28;20274;-51
2022/05/02 00:11:13;;;;;;;8.90;7.13;;;;;;;;;;4966527;28;20187;-51
2022/05/02 00:13:39;;;;;;;10.97;7.60;;;;;;;;;;4960696;28;20206;-51
2022/05/02 00:16:07;;;;;;;8.73;7.80;;;;;;;;;;4959893;28;20257;-51
2022/05/02 00:18:32;;;;;;;10.07;6.93;;;;;;;;;;4967731;28;20305;-51
2022/05/02 00:20:58;;;;;;;8.40;7.60;;;;;;;;;;4965953;28;20182;-52
2022/05/02 00:23:24;;;;;;;8.07;7.00;;;;;;;;;;4966478;28;20222;-51
2022/05/02 00:25:50;;;;;;;8.80;7.80;;;;;;;;;;4967142;28;20203;-51
2022/05/02 00:28:16;;;;;;;8.10;7.30;;;;;;;;;;4966238;28;23269;-51
2022/05/02 00:30:43;;;;;;;7.90;7.10;;;;;;;;;;4961247;28;20564;-51
2022/05/02 00:33:09;;;;;;;7.67;6.87;;;;;;;;;;4971134;28;20187;-50
2022/05/02 00:35:34;;;;;;;8.17;7.17;;;;;;;;;;4965484;28;20186;-51
2022/05/02 00:38:01;;;;;;;11.93;8.43;;;;;;;;;;4965049;28;20240;-50
2022/05/02 00:40:26;;;;;;;9.97;7.87;;;;;;;;;;4970310;28;20183;-50
2022/05/02 00:42:52;;;;;;;11.20;8.40;;;;;;;;;;4962076;28;20280;-50
2022/05/02 00:45:19;;;;;;;9.40;8.30;;;;;;;;;;4964287;28;20182;-50
2022/05/02 00:47:55;;;;;;;8.20;7.33;;;;;;;;;;4965828;28;22797;-50
2022/05/02 00:50:39;;;;;;;9.20;7.60;;;;;;;;;;4967662;28;20198;-51
2022/05/02 00:53:06;;;;;;;10.03;8.37;;;;;;;;;;4967061;28;20194;-50
2022/05/02 00:55:33;;;;;;;8.87;7.97;;;;;;;;;;4965198;28;20206;-51
2022/05/02 00:57:59;;;;;;;8.30;7.50;;;;;;;;;;4961045;28;20752;-51
2022/05/02 01:00:26;;;;;;;9.40;7.63;;;;;;;;;;4953163;28;20199;-49
2022/05/02 01:02:51;;;;;;;9.43;8.00;;;;;;;;;;4965528;28;20222;-50
2022/05/02 01:05:17;;;;;;;10.13;8.00;;;;;;;;;;4966079;28;20182;-50
2022/05/02 01:07:46;;;;;;;8.60;7.47;;;;;;;;;;4966533;28;25254;-51
2022/05/02 01:10:16;;;;;;;9.50;8.53;;;;;;;;;;4966032;28;20191;-50
2022/05/02 01:12:42;;;;;;;9.47;8.47;;;;;;;;;;4970415;28;20225;-51
2022/05/02 01:15:09;;;;;;;11.10;8.43;;;;;;;;;;4963337;28;20211;-50
2022/05/02 01:17:34;;;;;;;11.63;9.30;;;;;;;;;;4955928;28;20248;-51
2022/05/02 01:20:00;;;;;;;10.60;8.93;;;;;;;;;;4969815;28;20277;-50
2022/05/02 01:22:26;;;;;;;10.47;8.57;;;;;;;;;;4964593;28;20245;-51
2022/05/02 01:24:52;;;;;;;10.43;9.03;;;;;;;;;;4964755;28;20648;-50
2022/05/02 01:27:18;;;;;;;13.20;8.87;;;;;;;;;;4961880;28;20567;-50
2022/05/02 01:29:45;;;;;;;12.83;8.90;;;;;;;;;;4968252;28;20837;-50
2022/05/02 01:32:12;;;;;;;9.27;8.13;;;;;;;;;;4964012;28;20623;-50
2022/05/02 01:34:42;;;;;;;10.13;8.93;;;;;;;;;;4971119;28;20198;-50
2022/05/02 01:37:08;;;;;;;9.17;8.17;;;;;;;;;;4961566;28;20257;-50
2022/05/02 01:39:34;;;;;;;9.77;8.50;;;;;;;;;;4969543;28;20222;-50
2022/05/02 01:42:00;;;;;;;11.73;9.33;;;;;;;;;;4966549;28;20191;-51
2022/05/02 01:44:26;;;;;;;12.97;8.77;;;;;;;;;;4966552;28;20277;-50
2022/05/02 01:46:53;;;;;;;10.00;8.63;;;;;;;;;;4963887;28;20193;-50
2022/05/02 01:49:19;;;;;;;9.83;8.57;;;;;;;;;;4960328;28;20251;-50
2022/05/02 01:51:45;;;;;;;13.40;9.47;;;;;;;;;;4966853;28;20282;-50
2022/05/02 01:54:11;;;;;;;10.63;9.33;;;;;;;;;;4964043;28;20187;-51
2022/05/02 01:56:37;;;;;;;10.40;8.73;;;;;;;;;;4957809;28;20183;-50
2022/05/02 01:59:03;;;;;;;10.60;8.63;;;;;;;;;;4966764;28;20206;-50
2022/05/02 02:01:29;;;;;;;11.67;9.47;;;;;;;;;;4963117;28;21629;-51
2022/05/02 02:03:55;;;;;;;10.70;9.60;;;;;;;;;;4958359;28;20221;-50
2022/05/02 02:06:24;;;;;;;11.97;9.00;;;;;;;;;;4960393;28;20250;-51
2022/05/02 02:08:50;;;;;;;12.40;10.03;;;;;;;;;;4961634;28;20610;-51
2022/05/02 02:11:16;;;;;;;10.80;9.70;;;;;;;;;;4965324;28;20411;-51
2022/05/02 02:13:42;;;;;;;11.33;9.17;;;;;;;;;;4969344;28;20207;-49
2022/05/02 02:16:10;;;;;;;13.93;9.77;;;;;;;;;;4964205;28;20549;-50
2022/05/02 02:18:39;;;;;;;10.47;9.37;;;;;;;;;;4964450;28;20301;-50
2022/05/02 02:21:05;;;;;;;13.87;10.27;;;;;;;;;;4963714;28;20191;-50
2022/05/02 02:23:31;;;;;;;11.23;9.47;;;;;;;;;;4967464;28;20710;-50
2022/05/02 02:25:57;;;;;;;10.57;9.30;;;;;;;;;;4964573;28;20673;-50
2022/05/02 02:28:23;;;;;;;10.47;9.13;;;;;;;;;;4963094;28;20202;-51
2022/05/02 02:30:49;;;;;;;10.30;9.07;;;;;;;;;;4962658;28;20202;-50
2022/05/02 02:33:15;;;;;;;11.87;9.90;;;;;;;;;;4956513;28;20202;-52
2022/05/02 02:35:41;;;;;;;11.07;9.00;;;;;;;;;;4957699;28;20186;-52
2022/05/02 02:38:12;;;;;;;13.40;10.17;;;;;;;;;;4970203;28;20718;-52
2022/05/02 02:40:38;;;;;;;12.40;9.53;;;;;;;;;;4959630;28;20607;-52
2022/05/02 02:43:04;;;;;;;10.27;9.13;;;;;;;;;;4959000;28;20296;-52
2022/05/02 02:45:30;;;;;;;13.20;9.93;;;;;;;;;;4959523;28;20187;-52
2022/05/02 02:47:56;;;;;;;11.10;9.27;;;;;;;;;;4960192;28;20190;-52
2022/05/02 02:50:22;;;;;;;11.70;10.37;;;;;;;;;;4957501;28;20230;-51
2022/05/02 02:52:48;;;;;;;12.00;10.33;;;;;;;;;;4962275;28;20187;-51
2022/05/02 02:55:14;;;;;;;11.83;9.50;;;;;;;;;;4956390;28;20193;-52
2022/05/02 02:57:40;;;;;;;10.40;8.93;;;;;;;;;;4960555;28;20222;-51
2022/05/02 03:00:07;;;;;;;10.90;9.80;;;;;;;;;;4964616;28;20190;-52
2022/05/02 03:02:33;;;;;;;11.23;9.97;;;;;;;;;;4960885;28;20957;-52
2022/05/02 03:07:43;;;;;;;11.17;9.17;;;;;;;;;;4963760;28;20316;-52
2022/05/02 03:10:09;;;;;;;12.17;10.03;;;;;;;;;;4959685;28;20206;-52
2022/05/02 03:12:35;;;;;;;11.97;10.10;;;;;;;;;;4961797;28;20198;-52
2022/05/02 03:15:02;;;;;;;10.53;9.40;;;;;;;;;;4964224;28;20668;-51
2022/05/02 03:17:28;;;;;;;14.27;10.00;;;;;;;;;;4964968;28;20203;-51
2022/05/02 03:19:54;;;;;;;11.97;9.70;;;;;;;;;;4962226;28;20564;-51
2022/05/02 03:22:20;;;;;;;12.37;10.30;;;;;;;;;;4968094;28;20553;-52
2022/05/02 03:24:46;;;;;;;10.70;9.60;;;;;;;;;;4966984;28;20655;-52
2022/05/02 03:27:12;;;;;;;13.30;9.93;;;;;;;;;;4964342;28;20598;-52
2022/05/02 03:29:38;;;;;;;11.00;9.53;;;;;;;;;;4959926;28;20567;-51
2022/05/02 03:32:04;;;;;;;11.20;10.00;;;;;;;;;;4963502;28;20687;-52
2022/05/02 03:34:30;;;;;;;10.73;9.63;;;;;;;;;;4965522;28;20213;-52
2022/05/02 03:36:56;;;;;;;13.47;10.97;;;;;;;;;;4966590;28;20415;-51
2022/05/02 03:39:22;;;;;;;11.70;10.23;;;;;;;;;;4958826;28;21600;-51
2022/05/02 03:41:49;;;;;;;13.23;10.43;;;;;;;;;;4965113;28;20214;-52
2022/05/02 03:44:15;;;;;;;11.57;10.37;;;;;;;;;;4967868;28;20803;-51
2022/05/02 03:46:41;;;;;;;12.03;10.13;;;;;;;;;;4955737;28;20198;-51
2022/05/02 03:49:07;;;;;;;12.10;10.20;;;;;;;;;;4951130;28;20231;-51
2022/05/02 03:51:33;;;;;;;14.30;11.07;;;;;;;;;;4960709;28;20350;-51
2022/05/02 03:53:59;;;;;;;11.77;10.50;;;;;;;;;;4962825;28;20396;-51
2022/05/02 03:56:25;;;;;;;13.03;11.50;;;;;;;;;;4961847;28;20215;-52
2022/05/02 03:58:52;;;;;;;13.23;11.37;;;;;;;;;;4966309;28;20245;-51
2022/05/02 04:01:18;;;;;;;13.10;11.33;;;;;;;;;;4963755;28;20286;-52
2022/05/02 04:03:44;;;;;;;12.90;10.67;;;;;;;;;;4960896;28;20193;-52
2022/05/02 04:06:10;;;;;;;13.40;11.13;;;;;;;;;;4961895;28;20252;-51
2022/05/02 04:08:36;;;;;;;12.03;10.60;;;;;;;;;;4961812;28;20238;-51
2022/05/02 04:11:02;;;;;;;12.47;10.53;;;;;;;;;;4962405;28;20210;-52
2022/05/02 04:13:28;;;;;;;14.17;11.10;;;;;;;;;;4962277;28;20222;-52
2022/05/02 04:15:54;;;;;;;14.73;11.40;;;;;;;;;;4959677;28;20635;-51
2022/05/02 04:18:20;;;;;;;12.80;11.00;;;;;;;;;;4961893;28;20210;-51
2022/05/02 04:20:46;;;;;;;12.90;11.30;;;;;;;;;;4965911;28;25009;-51
2022/05/02 04:23:12;;;;;;;13.63;10.87;;;;;;;;;;4963875;28;20734;-51
2022/05/02 04:25:38;;;;;;;13.77;11.90;;;;;;;;;;4963972;28;20185;-51
2022/05/02 04:28:04;;;;;;;12.13;10.17;;;;;;;;;;4961777;28;20270;-51
2022/05/02 04:30:30;;;;;;;12.10;10.93;;;;;;;;;;4951987;28;20236;-52
2022/05/02 04:32:56;;;;;;;14.63;11.90;;;;;;;;;;4959301;28;20301;-51
2022/05/02 04:35:22;;;;;;;18.23;11.83;;;;;;;;;;4958876;28;20849;-52
2022/05/02 04:37:48;;;;;;;12.70;11.07;;;;;;;;;;4957493;28;20217;-51
2022/05/02 04:40:14;;;;;;;12.23;10.87;;;;;;;;;;4964277;28;20193;-52
2022/05/02 04:42:40;;;;;;;16.07;12.03;;;;;;;;;;4961506;28;20191;-52
2022/05/02 04:45:06;;;;;;;14.60;10.90;;;;;;;;;;4965847;28;20244;-52
2022/05/02 04:47:32;;;;;;;13.40;11.23;;;;;;;;;;4961371;28;20233;-52
2022/05/02 04:49:58;;;;;;;16.27;11.33;;;;;;;;;;4959275;28;20352;-52
2022/05/02 04:52:24;;;;;;;12.23;11.03;;;;;;;;;;4957781;28;20290;-52
2022/05/02 04:54:49;;;;;;;12.43;11.13;;;;;;;;;;4953335;28;20661;-52
2022/05/02 04:57:15;;;;;;;12.37;11.03;;;;;;;;;;4952476;28;20364;-52
2022/05/02 04:59:41;;;;;;;14.90;11.93;;;;;;;;;;4951582;28;20703;-52
2022/05/02 05:02:09;;;;;;;12.43;11.23;;;;;;;;;;4957827;28;20399;-52
2022/05/02 05:04:35;;;;;;;13.83;11.10;;;;;;;;;;4952718;28;20293;-52
2022/05/02 05:07:01;;;;;;;14.07;11.37;;;;;;;;;;4954248;28;20841;-52
2022/05/02 05:09:27;;;;;;;14.17;11.27;;;;;;;;;;4957409;28;20195;-52
2022/05/02 05:12:22;;;;;;;14.47;11.13;;;;;;;;;;4961173;28;20568;-53
2022/05/02 05:17:40;;;;;;;12.10;10.43;;;;;;;;;;4955734;28;20292;-52
2022/05/02 05:20:13;;;;;;;13.70;11.67;;;;;;;;;;4962069;28;20198;-52
2022/05/02 05:22:53;;;;;;;11.83;10.37;;;;;;;;;;4966919;28;20288;-52
2022/05/02 05:25:24;;;;;;;12.70;11.10;;;;;;;;;;4954760;28;20221;-52
2022/05/02 05:27:53;;;;;;;13.83;12.27;;;;;;;;;;4967991;28;20214;-51
2022/05/02 05:30:21;;;;;;;13.03;11.40;;;;;;;;;;4959515;28;20187;-52
2022/05/02 05:32:52;;;;;;;16.77;13.20;;;;;;;;;;4966047;28;20198;-52
2022/05/02 05:35:24;;;;;;;13.37;11.97;;;;;;;;;;4953955;28;20574;-52
2022/05/02 05:37:56;;;;;;;13.40;12.07;;;;;;;;;;4969899;28;20564;-52
2022/05/02 05:40:25;;;;;;;12.87;11.30;;;;;;;;;;4963021;28;20190;-52
2022/05/02 05:43:04;;;;;;;13.70;10.97;;;;;;;;;;4963053;28;20572;-52
2022/05/02 05:45:42;;;;;;;12.97;11.57;;;;;;;;;;4963445;28;20183;-52
2022/05/02 05:48:20;;;;;;;14.73;12.03;;;;;;;;;;4964499;28;20699;-52
2022/05/02 05:50:49;;;;;;;12.63;11.30;;;;;;;;;;4957775;28;20198;-51
2022/05/02 05:53:33;;;;;;;13.93;12.40;;;;;;;;;;4958657;28;20199;-52
2022/05/02 05:56:02;;;;;;;12.17;10.67;;;;;;;;;;4962195;28;20274;-52
2022/05/02 05:58:29;;;;;;;14.13;12.23;;;;;;;;;;4964082;28;21228;-51
2022/05/02 06:01:00;;;;;;;15.17;11.57;;;;;;;;;;4965825;28;20294;-51
2022/05/02 06:03:26;;;;;;;13.40;12.00;;;;;;;;;;4966922;28;20187;-51
2022/05/02 06:05:52;;;;;;;14.23;12.73;;;;;;;;;;4953890;28;20256;-52
2022/05/02 06:08:22;;;;;;;14.77;13.20;;;;;;;;;;4955755;28;20329;-52
2022/05/02 06:10:48;;;;;;;13.50;11.47;;;;;;;;;;4968251;28;20555;-51
2022/05/02 06:13:17;;;;;;;14.03;12.53;;;;;;;;;;4969255;28;20197;-52
2022/05/02 06:18:30;;;;;;;16.73;12.23;;;;;;;;;;4966363;28;20277;-52
2022/05/02 06:21:00;;;;;;;13.30;11.87;;;;;;;;;;4962199;28;20736;-52
2022/05/02 06:23:26;;;;;;;12.83;11.53;;;;;;;;;;4964769;28;20190;-51
2022/05/02 06:25:53;;;;;;;17.07;11.97;;;;;;;;;;4970468;28;20186;-51
2022/05/02 06:28:20;;;;;;;14.70;13.20;;;;;;;;;;4967533;28;20196;-52
2022/05/02 06:30:46;;;;;;;15.63;13.47;;;;;;;;;;4962605;28;20202;-52
2022/05/02 06:33:12;;;;;;;14.23;11.93;;;;;;;;;;4960886;28;20194;-52
2022/05/02 06:35:57;;;;;;;15.00;12.23;;;;;;;;;;4966494;28;20252;-52
2022/05/02 06:38:34;;;;;;;13.50;11.47;;;;;;;;;;4967520;28;20202;-52
2022/05/02 06:41:20;;;;;;;14.40;11.73;;;;;;;;;;4969573;28;20186;-52
2022/05/02 06:43:50;;;;;;;14.03;12.53;;;;;;;;;;4964663;28;20614;-51
2022/05/02 06:46:19;;;;;;;14.13;12.03;;;;;;;;;;4965135;28;20195;-52
2022/05/02 06:48:54;;;;;;;13.57;12.27;;;;;;;;;;4968407;28;20191;-52
2022/05/02 06:51:25;;;;;;;13.77;12.30;;;;;;;;;;4965866;28;20206;-52
2022/05/02 06:53:51;;;;;;;17.33;12.70;;;;;;;;;;4955309;28;20511;-52
2022/05/02 06:56:23;;;;;;;13.40;12.03;;;;;;;;;;4962209;28;20190;-52
2022/05/02 06:59:05;;;;;;;14.23;12.57;;;;;;;;;;4970083;28;20203;-52
2022/05/02 07:01:50;;;;;;;14.60;13.10;;;;;;;;;;4959492;28;20198;-51
2022/05/02 07:04:22;;;;;;;12.97;11.73;;;;;;;;;;4963757;28;20643;-52
2022/05/02 07:07:03;;;;;;;14.30;12.83;;;;;;;;;;4964747;28;20852;-52
2022/05/02 07:09:31;;;;;;;16.37;12.30;;;;;;;;;;4963952;28;20277;-52
2022/05/02 07:12:02;;;;;;;13.57;11.63;;;;;;;;;;4967369;28;20183;-52
2022/05/02 07:14:33;;;;;;;13.47;12.07;;;;;;;;;;4961208;28;20916;-51
2022/05/02 07:17:00;;;;;;;14.30;12.03;;;;;;;;;;4966910;28;20654;-52
2022/05/02 07:19:40;;;;;;;14.73;13.10;;;;;;;;;;4967258;28;20282;-52
2022/05/02 07:22:11;;;;;;;13.80;11.37;;;;;;;;;;4966191;28;20244;-52
2022/05/02 07:24:37;;;;;;;11.80;10.63;;;;;;;;;;4967911;28;20198;-52
2022/05/02 07:27:16;;;;;;;14.33;11.73;;;;;;;;;;4969804;28;20190;-51
2022/05/02 07:29:43;;;;;;;14.93;11.73;;;;;;;;;;4967753;28;20272;-52
2022/05/02 07:32:09;;;;;;;13.33;11.97;;;;;;;;;;4959543;28;20281;-52
2022/05/02 07:34:36;;;;;;;16.90;13.10;;;;;;;;;;4959874;28;21006;-52
2022/05/02 07:37:02;;;;;;;15.47;11.70;;;;;;;;;;4964793;28;20273;-52
2022/05/02 07:39:28;;;;;;;13.63;11.10;;;;;;;;;;4961448;28;20201;-51
2022/05/02 07:41:54;;;;;;;11.47;10.37;;;;;;;;;;4963132;28;20202;-52
2022/05/02 07:44:20;;;;;;;13.63;11.83;;;;;;;;;;4967510;28;20245;-52
2022/05/02 07:46:46;;;;;;;14.07;11.63;;;;;;;;;;4965004;28;20256;-52
2022/05/02 07:49:16;;;;;;;15.73;12.03;;;;;;;;;;4973016;28;20187;-52
2022/05/02 07:51:43;;;;;;;12.20;11.00;;;;;;;;;;4967193;28;20238;-52
2022/05/02 07:54:14;;;;;;;12.43;11.13;;;;;;;;;;4971134;28;20614;-52
2022/05/02 07:56:40;;;;;;;11.90;10.73;;;;;;;;;;4967311;28;20186;-52
2022/05/02 07:59:06;;;;;;;13.07;11.77;;;;;;;;;;4964239;28;20222;-51
2022/05/02 08:01:32;;;;;;;11.50;10.27;;;;;;;;;;4968086;28;20191;-51
2022/05/02 08:03:58;;;;;;;11.93;10.47;;;;;;;;;;4948953;28;20191;-52
2022/05/02 08:06:27;;;;;;;15.33;12.07;;;;;;;;;;4958463;28;20214;-52
2022/05/02 08:09:12;;;;;;;10.17;9.17;;;;;;;;;;4969226;28;20242;-52
2022/05/02 08:11:53;;;;;;;10.70;9.70;;;;;;;;;;4963747;28;20194;-52
2022/05/02 08:14:26;;;;;;;12.70;10.03;;;;;;;;;;4972364;28;20640;-52
2022/05/02 08:17:08;;;;;;;11.57;9.63;;;;;;;;;;4963696;28;20663;-52
2022/05/02 08:19:38;;;;;;;11.93;10.10;;;;;;;;;;4970333;28;20198;-52
2022/05/02 08:27:57;;;;;;;10.67;9.03;;;;;;;;;;4971169;28;20265;-52
2022/05/02 08:30:23;;;;;;;12.50;9.95;;;;;;;;;;4972707;28;20196;-52
2022/05/02 08:33:08;;;;;;;10.80;9.65;;;;;;;;;;4961792;28;20771;-52
2022/05/02 08:35:44;;;;;;;12.32;11.13;;;;;;;;;;4966473;28;20197;-52
2022/05/02 08:38:29;;;;;;;10.57;8.95;;;;;;;;;;4968229;28;20206;-52
2022/05/02 08:41:13;;;;;;;8.95;7.57;;;;;;;;;;4966724;28;20556;-53
2022/05/02 08:43:46;;;;;;;11.45;9.30;;;;;;;;;;4969020;28;20641;-53
2022/05/02 08:46:18;;;;;;;11.90;10.10;;;;;;;;;;4958633;28;20188;-53
2022/05/02 08:48:47;;;;;;;9.82;8.85;;;;;;;;;;4963049;28;20312;-52
2022/05/02 08:51:12;;;;;;;10.35;8.93;;;;;;;;;;4960521;28;20731;-52
2022/05/02 08:53:38;;;;;;;8.52;7.65;;;;;;;;;;4972525;28;20187;-52
2022/05/02 08:56:21;;;;;;;12.43;9.15;;;;;;;;;;4962864;28;20198;-52
2022/05/02 08:59:02;;;;;;;9.73;7.93;;;;;;;;;;4968302;28;20290;-52
2022/05/02 09:01:50;;;;;;;8.35;7.47;;;;;;;;;;4969517;28;20183;-52
2022/05/02 09:04:35;;;;;;;11.73;7.82;;;;;;;;;;4970999;28;20190;-52
2022/05/02 09:07:20;;;;;;;7.20;6.50;;;;;;;;;;4966572;28;20213;-52
2022/05/02 09:09:52;;;;;;;8.25;7.30;;;;;;;;;;4967982;28;20249;-52
2022/05/02 09:12:18;;;;;;;11.52;7.22;;;;;;;;;;4964844;28;20214;-52
2022/05/02 09:14:50;;;;;;;10.48;6.80;;;;;;;;;;4970118;28;20186;-52
2022/05/02 09:17:35;;;;;;;7.25;6.55;;;;;;;;;;4970636;28;20757;-52
2022/05/02 09:20:19;;;;;;;9.95;5.93;;;;;;;;;;4963300;28;20750;-52
2022/05/02 09:22:54;;;;;;;8.68;5.95;;;;;;;;;;4969493;28;20214;-51
2022/05/02 09:25:48;;;;;;;6.90;5.28;;;;;;;;;;4963882;28;20220;-52
2022/05/02 09:28:23;;;;;;;5.95;5.45;;;;;;;;;;4958939;28;20206;-53
2022/05/02 09:30:49;;;;;;;6.97;4.88;;;;;;;;;;4967558;28;20691;-53
2022/05/02 09:33:24;;;;;;;6.20;5.53;;;;;;;;;;4969936;28;20289;-52
2022/05/02 09:35:53;;;;;;;7.78;5.53;;;;;;;;;;4965958;28;20515;-52
2022/05/02 09:38:26;;;;;;;5.75;5.03;;;;;;;;;;4965437;28;20292;-52
2022/05/02 09:40:59;;;;;;;10.13;5.63;;;;;;;;;;4965134;28;20198;-52
2022/05/02 09:49:40;;;;;;;5.70;5.20;;;;;;;;;;4954554;28;20691;-53
2022/05/02 09:52:10;;;;;;;7.45;5.03;;;;;;;;;;4967424;28;20608;-53
2022/05/02 09:57:50;;;;;;;6.05;4.35;;;;;;;;;;4962025;28;20218;-52
2022/05/02 10:03:07;;;;;;;6.22;3.42;;;;;;;;;;4964728;28;20321;-52
2022/05/02 10:05:52;;;;;;;6.22;3.42;;;;;;;;;;4962151;28;21410;-53
2022/05/02 10:08:30;;;;;;;4.07;3.53;;;;;;;;;;4964288;28;20587;-54
2022/05/02 10:11:05;;;;;;;4.57;3.30;;;;;;;;;;4970204;28;20559;-53
2022/05/02 10:13:44;;;;;;;3.60;3.17;;;;;;;;;;4973804;28;20608;-53
2022/05/02 10:16:16;;;;;;;7.47;3.42;;;;;;;;;;4967185;28;20185;-53
2022/05/02 10:19:01;;;;;;;3.72;3.30;;;;;;;;;;4966850;28;20218;-52
2022/05/02 10:21:34;;;;;;;4.43;3.25;;;;;;;;;;4964347;28;20249;-53
2022/05/02 10:24:15;;;;;;;5.65;3.88;;;;;;;;;;4968573;28;20201;-53
2022/05/02 10:26:42;;;;;;;5.47;2.95;;;;;;;;;;4967775;28;20849;-53
2022/05/02 10:29:26;;;;;;;3.72;3.08;;;;;;;;;;4968536;28;20641;-52
2022/05/02 10:32:18;;;;;;;5.30;3.67;;;;;;;;;;4967206;28;20269;-53
2022/05/02 10:34:45;;;;;;;3.47;2.95;;;;;;;;;;4948837;28;20606;-52
2022/05/02 10:37:11;;;;;;;5.05;3.40;;;;;;;;;;4966588;28;20186;-53
2022/05/02 10:39:45;;;;;;;5.82;3.55;;;;;;;;;;4966900;28;20218;-52
2022/05/02 10:42:11;;;;;;;4.60;3.60;;;;;;;;;;4958651;28;20660;-53
2022/05/02 10:44:41;;;;;;;4.25;3.10;;;;;;;;;;4965896;28;20241;-51
2022/05/02 10:47:07;;;;;;;4.72;3.80;;;;;;;;;;4963709;28;20182;-51
2022/05/02 10:49:36;;;;;;;6.25;3.38;;;;;;;;;;4966395;28;20191;-52
2022/05/02 10:52:11;;;;;;;4.90;3.22;;;;;;;;;;4966496;28;20221;-51
2022/05/02 10:54:41;;;;;;;3.65;3.30;;;;;;;;;;4966692;28;20197;-51
2022/05/02 10:57:26;;;;;;;3.80;3.40;;;;;;;;;;4966733;28;20206;-51
2022/05/02 10:59:53;;;;;;;3.70;3.40;;;;;;;;;;4968500;28;20203;-52
2022/05/02 11:02:24;;;;;;;5.78;4.00;;;;;;;;;;4965484;28;20183;-52
2022/05/02 11:05:07;;;;;;;11.68;7.85;;;;;;;;;;4959857;28;20269;-51
2022/05/02 11:07:36;;;;;;;9.10;8.10;;;;;;;;;;4963884;28;20269;-51
2022/05/02 11:10:07;;;;;;;9.50;8.50;;;;;;;;;;4962709;28;20191;-52
2022/05/02 11:12:36;;;;;;;9.43;8.40;;;;;;;;;;4960627;28;20326;-51
2022/05/02 11:15:05;;;;;;;11.77;8.52;;;;;;;;;;4961002;28;20663;-51
2022/05/02 11:17:49;;;;;;;10.43;9.35;;;;;;;;;;4964812;28;20229;-55
2022/05/02 11:23:04;;;;;;;10.40;8.27;;;;;;;;;;4969445;28;20193;-54
2022/05/02 11:25:35;;;;;;;8.13;7.28;;;;;;;;;;4968438;28;20566;-55
2022/05/02 11:28:16;;;;;;;10.73;7.97;;;;;;;;;;4972445;28;20194;-55
2022/05/02 11:30:42;;;;;;;8.50;7.60;;;;;;;;;;4972977;28;20283;-55
2022/05/02 11:33:12;;;;;;;8.80;7.93;;;;;;;;;;4966022;28;20186;-54
2022/05/02 11:35:38;;;;;;;11.20;8.27;;;;;;;;;;4952613;28;20554;-54
2022/05/02 11:38:22;;;;;;;9.23;8.20;;;;;;;;;;4965197;28;20562;-55
2022/05/02 11:40:51;;;;;;;13.10;7.95;;;;;;;;;;4973246;28;20587;-54
2022/05/02 11:43:21;;;;;;;8.57;7.65;;;;;;;;;;4964824;28;20590;-55
2022/05/02 11:46:10;;;;;;;10.45;8.20;;;;;;;;;;4973410;28;20240;-54
2022/05/02 11:48:55;;;;;;;10.43;8.63;;;;;;;;;;4957680;28;20245;-55
2022/05/02 11:51:38;;;;;;;11.27;8.73;;;;;;;;;;4967709;28;20195;-54
2022/05/02 11:54:19;;;;;;;9.10;8.00;;;;;;;;;;4961918;28;20186;-54
2022/05/02 11:57:07;;;;;;;8.93;7.80;;;;;;;;;;4972551;28;20270;-54
2022/05/02 11:59:55;;;;;;;13.80;8.30;;;;;;;;;;4961882;28;20202;-54
2022/05/02 12:02:23;;;;;;;10.23;8.18;;;;;;;;;;4966811;28;20202;-54
2022/05/02 12:04:49;;;;;;;9.48;8.45;;;;;;;;;;4973045;28;20597;-55
2022/05/02 12:07:15;;;;;;;9.95;7.60;;;;;;;;;;4963344;28;20241;-55
2022/05/02 12:09:41;;;;;;;12.90;8.98;;;;;;;;;;4960919;28;20237;-54
2022/05/02 12:12:07;;;;;;;13.38;8.77;;;;;;;;;;4967166;28;20281;-54
2022/05/02 12:14:34;;;;;;;9.25;8.35;;;;;;;;;;4967161;28;20186;-55
2022/05/02 12:17:07;;;;;;;11.98;8.85;;;;;;;;;;4958915;28;20186;-55
2022/05/02 12:19:33;;;;;;;8.48;7.55;;;;;;;;;;4963577;28;20245;-55
2022/05/02 12:22:04;;;;;;;9.18;8.27;;;;;;;;;;4967591;28;20644;-54
2022/05/02 12:24:34;;;;;;;12.07;8.48;;;;;;;;;;4972123;28;20191;-55
2022/05/02 12:27:00;;;;;;;9.15;8.07;;;;;;;;;;4971849;28;20193;-55
2022/05/02 12:29:26;;;;;;;9.20;8.02;;;;;;;;;;4965462;28;20191;-55
2022/05/02 12:31:56;;;;;;;10.32;8.35;;;;;;;;;;4965578;28;20778;-54
2022/05/02 12:34:22;;;;;;;10.05;8.23;;;;;;;;;;4970316;28;20300;-55
2022/05/02 12:36:50;;;;;;;10.57;8.70;;;;;;;;;;4967844;28;20236;-54
2022/05/02 12:39:20;;;;;;;10.80;8.40;;;;;;;;;;4971581;28;20254;-55
2022/05/02 12:41:47;;;;;;;14.13;8.73;;;;;;;;;;4969975;28;20183;-55
2022/05/02 12:44:13;;;;;;;11.82;8.98;;;;;;;;;;4966590;28;20545;-55
2022/05/02 12:46:40;;;;;;;15.05;8.90;;;;;;;;;;4965478;28;20534;-55
2022/05/02 12:49:06;;;;;;;12.65;8.32;;;;;;;;;;4964180;28;20293;-55
2022/05/02 12:51:32;;;;;;;10.13;8.40;;;;;;;;;;4967065;28;20191;-55
2022/05/02 12:54:15;;;;;;;9.80;8.85;;;;;;;;;;4970101;28;20310;-55
2022/05/02 12:56:48;;;;;;;10.57;8.57;;;;;;;;;;4964571;28;20195;-55
2022/05/02 13:02:00;;;;;;;12.93;8.80;;;;;;;;;;4958139;28;20198;-54
2022/05/02 13:04:26;;;;;;;11.07;9.00;;;;;;;;;;4966138;28;20547;-54
2022/05/02 13:06:52;;;;;;;10.23;8.55;;;;;;;;;;4966937;28;20203;-54
2022/05/02 13:09:21;;;;;;;10.43;8.75;;;;;;;;;;4966934;28;20202;-54
2022/05/02 13:11:47;;;;;;;10.77;8.25;;;;;;;;;;4966391;28;20213;-54
2022/05/02 13:14:23;;;;;;;9.93;8.45;;;;;;;;;;4968470;28;20198;-54
2022/05/02 13:16:49;;;;;;;11.88;8.50;;;;;;;;;;4969446;28;20272;-54
2022/05/02 13:19:15;;;;;;;8.90;8.00;;;;;;;;;;4976907;28;22117;-54
2022/05/02 13:21:41;;;;;;;8.48;7.78;;;;;;;;;;4966408;28;20182;-54
2022/05/02 13:24:12;;;;;;;8.68;7.10;;;;;;;;;;4969143;28;20186;-54
2022/05/02 13:26:52;;;;;;;11.75;7.55;;;;;;;;;;4986025;28;20194;-54
2022/05/02 13:29:21;;;;;;;8.48;7.60;;;;;;;;;;4964111;28;20236;-55
2022/05/02 13:32:01;;;;;;;10.85;7.97;;;;;;;;;;4960483;28;20612;-54
2022/05/02 13:34:36;;;;;;;10.57;7.88;;;;;;;;;;4966478;28;20194;-55
2022/05/02 13:37:08;;;;;;;8.15;6.75;;;;;;;;;;4960357;28;20198;-55
2022/05/02 13:39:44;;;;;;;9.73;8.05;;;;;;;;;;4951898;28;20246;-54
2022/05/02 13:42:16;;;;;;;10.82;7.35;;;;;;;;;;4960243;28;20225;-54
2022/05/02 13:44:56;;;;;;;19.85;8.40;;;;;;;;;;4978650;28;22180;-55
2022/05/02 13:47:23;;;;;;;10.13;7.50;;;;;;;;;;4958519;28;20179;-55
2022/05/02 13:49:56;;;;;;;10.38;7.40;;;;;;;;;;4959817;28;20182;-54
2022/05/02 13:52:37;;;;;;;8.35;7.05;;;;;;;;;;4958432;28;20249;-54
2022/05/02 13:55:24;;;;;;;8.48;7.63;;;;;;;;;;4947864;28;20762;-55
2022/05/02 13:57:50;;;;;;;7.93;7.15;;;;;;;;;;4958299;28;20257;-55
2022/05/02 14:03:06;;;;;;;8.70;7.88;;;;;;;;;;4957740;28;20759;-55
2022/05/02 14:05:42;;;;;;;10.48;7.43;;;;;;;;;;4965251;28;20189;-54
2022/05/02 14:08:10;;;;;;;8.73;7.35;;;;;;;;;;4961295;28;20694;-55
2022/05/02 14:10:57;;;;;;;8.32;7.28;;;;;;;;;;4966030;28;20257;-54
2022/05/02 14:13:23;;;;;;;7.80;6.43;;;;;;;;;;4955948;28;20186;-54
2022/05/02 14:15:49;;;;;;;9.77;7.75;;;;;;;;;;4957792;28;20284;-55
2022/05/02 14:18:19;;;;;;;8.90;7.32;;;;;;;;;;4963507;28;20218;-55
2022/05/02 14:20:48;;;;;;;8.48;6.93;;;;;;;;;;4962224;28;20186;-55
2022/05/02 14:23:14;;;;;;;8.77;7.50;;;;;;;;;;4957123;28;20179;-55
2022/05/02 14:25:41;;;;;;;10.27;7.50;;;;;;;;;;4951899;28;20182;-54
2022/05/02 14:28:13;;;;;;;7.80;6.45;;;;;;;;;;4963648;28;20246;-55
2022/05/02 14:30:41;;;;;;;7.60;6.82;;;;;;;;;;4955771;28;20198;-55
2022/05/02 14:33:09;;;;;;;8.90;7.28;;;;;;;;;;4965007;28;20198;-55
2022/05/02 14:35:39;;;;;;;8.00;6.68;;;;;;;;;;4953540;28;20299;-55
2022/05/02 14:38:11;;;;;;;8.63;7.35;;;;;;;;;;4945059;28;20698;-55
2022/05/02 14:40:38;;;;;;;7.10;6.50;;;;;;;;;;4952619;28;20189;-55
2022/05/02 14:43:04;;;;;;;8.07;7.28;;;;;;;;;;4956693;28;20191;-55
2022/05/02 14:45:30;;;;;;;7.68;6.35;;;;;;;;;;4959754;28;20182;-55
2022/05/02 14:47:56;;;;;;;11.18;5.80;;;;;;;;;;4959551;28;20593;-56
2022/05/02 14:50:23;;;;;;;6.60;5.63;;;;;;;;;;4960403;28;20250;-55
2022/05/02 14:52:49;;;;;;;9.10;7.03;;;;;;;;;;4963834;28;20187;-55
2022/05/02 14:55:16;;;;;;;7.70;6.90;;;;;;;;;;4959810;28;20206;-55
2022/05/02 14:57:45;;;;;;;17.40;7.28;;;;;;;;;;4946521;28;20679;-54
2022/05/02 15:00:12;;;;;;;9.57;7.55;;;;;;;;;;4951317;28;20325;-55
2022/05/02 15:02:38;;;;;;;14.68;8.98;;;;;;;;;;4959102;28;20599;-56
2022/05/02 15:05:07;;;;;;;8.68;7.32;;;;;;;;;;4960767;28;20740;-55
2022/05/02 15:07:49;;;;;;;8.38;7.57;;;;;;;;;;4962965;28;20844;-55
2022/05/02 15:10:19;;;;;;;13.10;8.10;;;;;;;;;;4959286;28;20186;-55
2022/05/02 15:13:03;;;;;;;8.25;6.95;;;;;;;;;;4952009;28;20186;-55
2022/05/02 15:15:35;;;;;;;9.68;6.95;;;;;;;;;;4956230;28;20268;-55
2022/05/02 15:18:30;;;;;;;8.48;7.68;;;;;;;;;;4967279;28;20591;-54
2022/05/02 15:20:57;;;;;;;8.57;7.65;;;;;;;;;;4953681;28;20687;-55
2022/05/02 15:23:23;;;;;;;11.32;8.25;;;;;;;;;;4973560;28;20194;-55